sensor_id;sensor_type;location;lat;lon;timestamp;P1;durP1;ratioP1;P2;durP2;ratioP2
34471;SDS011;20710;49.976;19.836;2023-07-13T00:00:10;10.90;;;6.30;;
34471;SDS011;20710;49.976;19.836;2023-07-13T00:06:53;11.50;;;7.10;;
34471;SDS011;20710;49.976;19.836;2023-07-13T00:12:55;11.40;;;6.70;;
34471;SDS011;20710;49.976;19.836;2023-07-13T00:18:57;11.10;;;7.20;;
34471;SDS011;20710;49.976;19.836;2023-07-13T00:25:22;14.90;;;7.20;;
34471;SDS011;20710;49.976;19.836;2023-07-13T00:31:25;12.10;;;8.00;;
34471;SDS011;20710;49.976;19.836;2023-07-13T00:37:27;12.80;;;8.00;;
34471;SDS011;20710;49.976;19.836;2023-07-13T00:43:29;12.30;;;8.70;;
34471;SDS011;20710;49.976;19.836;2023-07-13T00:49:31;15.80;;;8.10;;
34471;SDS011;20710;49.976;19.836;2023-07-13T00:55:34;15.90;;;8.60;;
34471;SDS011;20710;49.976;19.836;2023-07-13T01:01:36;12.40;;;8.20;;
34471;SDS011;20710;49.976;19.836;2023-07-13T01:07:38;14.00;;;8.60;;
34471;SDS011;20710;49.976;19.836;2023-07-13T01:14:01;10.30;;;7.10;;
34471;SDS011;20710;49.976;19.836;2023-07-13T01:20:03;12.20;;;6.30;;
34471;SDS011;20710;49.976;19.836;2023-07-13T01:26:06;10.40;;;7.10;;
34471;SDS011;20710;49.976;19.836;2023-07-13T01:32:28;11.60;;;6.90;;
34471;SDS011;20710;49.976;19.836;2023-07-13T01:38:32;8.70;;;6.80;;
34471;SDS011;20710;49.976;19.836;2023-07-13T01:44:36;14.60;;;8.60;;
34471;SDS011;20710;49.976;19.836;2023-07-13T01:50:58;9.60;;;7.40;;
34471;SDS011;20710;49.976;19.836;2023-07-13T01:57:20;10.60;;;7.30;;
34471;SDS011;20710;49.976;19.836;2023-07-13T02:04:24;7.40;;;6.40;;
34471;SDS011;20710;49.976;19.836;2023-07-13T02:10:27;9.60;;;6.50;;
34471;SDS011;20710;49.976;19.836;2023-07-13T02:16:30;11.20;;;6.90;;
34471;SDS011;20710;49.976;19.836;2023-07-13T02:22:32;10.60;;;7.70;;
34471;SDS011;20710;49.976;19.836;2023-07-13T02:28:33;7.60;;;6.60;;
34471;SDS011;20710;49.976;19.836;2023-07-13T02:34:35;7.60;;;6.20;;
34471;SDS011;20710;49.976;19.836;2023-07-13T02:40:39;7.90;;;6.90;;
34471;SDS011;20710;49.976;19.836;2023-07-13T02:46:41;8.70;;;6.40;;
34471;SDS011;20710;49.976;19.836;2023-07-13T02:52:43;7.30;;;6.20;;
34471;SDS011;20710;49.976;19.836;2023-07-13T02:58:45;10.00;;;6.60;;
34471;SDS011;20710;49.976;19.836;2023-07-13T03:06:07;10.70;;;5.90;;
34471;SDS011;20710;49.976;19.836;2023-07-13T03:12:30;12.10;;;6.60;;
34471;SDS011;20710;49.976;19.836;2023-07-13T03:18:31;12.30;;;6.80;;
34471;SDS011;20710;49.976;19.836;2023-07-13T03:24:36;8.50;;;7.10;;
34471;SDS011;20710;49.976;19.836;2023-07-13T03:31:02;8.80;;;7.50;;
34471;SDS011;20710;49.976;19.836;2023-07-13T03:37:27;9.60;;;6.90;;
34471;SDS011;20710;49.976;19.836;2023-07-13T03:44:27;9.20;;;6.60;;
34471;SDS011;20710;49.976;19.836;2023-07-13T03:50:49;10.40;;;6.70;;
34471;SDS011;20710;49.976;19.836;2023-07-13T03:56:51;11.50;;;5.90;;
34471;SDS011;20710;49.976;19.836;2023-07-13T04:02:53;8.60;;;5.60;;
34471;SDS011;20710;49.976;19.836;2023-07-13T04:08:56;7.20;;;5.90;;
34471;SDS011;20710;49.976;19.836;2023-07-13T04:14:59;7.80;;;5.60;;
34471;SDS011;20710;49.976;19.836;2023-07-13T04:21:00;7.70;;;5.60;;
34471;SDS011;20710;49.976;19.836;2023-07-13T04:27:02;6.90;;;6.10;;
34471;SDS011;20710;49.976;19.836;2023-07-13T04:33:04;9.20;;;6.30;;
34471;SDS011;20710;49.976;19.836;2023-07-13T04:39:06;8.90;;;5.60;;
34471;SDS011;20710;49.976;19.836;2023-07-13T04:45:09;8.20;;;6.20;;
34471;SDS011;20710;49.976;19.836;2023-07-13T04:51:11;10.00;;;6.80;;
34471;SDS011;20710;49.976;19.836;2023-07-13T04:57:13;10.50;;;6.30;;
34471;SDS011;20710;49.976;19.836;2023-07-13T05:03:15;8.80;;;5.90;;
34471;SDS011;20710;49.976;19.836;2023-07-13T05:09:27;7.30;;;6.00;;
34471;SDS011;20710;49.976;19.836;2023-07-13T05:15:28;10.20;;;6.00;;
34471;SDS011;20710;49.976;19.836;2023-07-13T05:21:33;10.40;;;6.20;;
34471;SDS011;20710;49.976;19.836;2023-07-13T05:27:35;10.80;;;6.30;;
34471;SDS011;20710;49.976;19.836;2023-07-13T05:33:37;9.40;;;5.50;;
34471;SDS011;20710;49.976;19.836;2023-07-13T05:39:38;11.30;;;6.80;;
34471;SDS011;20710;49.976;19.836;2023-07-13T05:46:00;9.90;;;6.20;;
34471;SDS011;20710;49.976;19.836;2023-07-13T05:52:02;8.20;;;6.00;;
34471;SDS011;20710;49.976;19.836;2023-07-13T05:58:05;10.50;;;6.40;;
34471;SDS011;20710;49.976;19.836;2023-07-13T06:04:07;9.30;;;5.60;;
34471;SDS011;20710;49.976;19.836;2023-07-13T06:10:31;8.80;;;5.50;;
34471;SDS011;20710;49.976;19.836;2023-07-13T06:16:52;8.30;;;5.60;;
34471;SDS011;20710;49.976;19.836;2023-07-13T06:23:02;8.30;;;5.80;;
34471;SDS011;20710;49.976;19.836;2023-07-13T06:29:28;7.80;;;6.20;;
34471;SDS011;20710;49.976;19.836;2023-07-13T06:35:52;6.70;;;5.70;;
34471;SDS011;20710;49.976;19.836;2023-07-13T06:41:53;6.90;;;4.90;;
34471;SDS011;20710;49.976;19.836;2023-07-13T06:47:55;6.90;;;5.50;;
34471;SDS011;20710;49.976;19.836;2023-07-13T06:55:08;8.60;;;5.30;;
34471;SDS011;20710;49.976;19.836;2023-07-13T07:02:24;6.30;;;4.60;;
34471;SDS011;20710;49.976;19.836;2023-07-13T07:08:26;9.10;;;5.00;;
34471;SDS011;20710;49.976;19.836;2023-07-13T07:14:55;10.90;;;5.30;;
34471;SDS011;20710;49.976;19.836;2023-07-13T07:20:59;6.70;;;4.20;;
34471;SDS011;20710;49.976;19.836;2023-07-13T07:27:02;6.10;;;4.40;;
34471;SDS011;20710;49.976;19.836;2023-07-13T07:33:04;5.40;;;4.30;;
34471;SDS011;20710;49.976;19.836;2023-07-13T07:39:28;7.30;;;4.70;;
34471;SDS011;20710;49.976;19.836;2023-07-13T07:46:46;8.10;;;5.40;;
34471;SDS011;20710;49.976;19.836;2023-07-13T07:52:48;6.30;;;3.90;;
34471;SDS011;20710;49.976;19.836;2023-07-13T07:58:50;6.90;;;4.70;;
34471;SDS011;20710;49.976;19.836;2023-07-13T08:04:51;8.40;;;4.20;;
34471;SDS011;20710;49.976;19.836;2023-07-13T08:10:56;8.20;;;4.10;;
34471;SDS011;20710;49.976;19.836;2023-07-13T08:17:16;7.30;;;4.40;;
34471;SDS011;20710;49.976;19.836;2023-07-13T08:23:38;6.00;;;4.00;;
34471;SDS011;20710;49.976;19.836;2023-07-13T08:29:40;7.60;;;4.20;;
34471;SDS011;20710;49.976;19.836;2023-07-13T08:35:42;11.70;;;4.80;;
34471;SDS011;20710;49.976;19.836;2023-07-13T08:41:45;6.40;;;4.40;;
34471;SDS011;20710;49.976;19.836;2023-07-13T08:48:03;12.30;;;5.00;;
34471;SDS011;20710;49.976;19.836;2023-07-13T08:54:26;6.90;;;4.50;;
34471;SDS011;20710;49.976;19.836;2023-07-13T09:00:59;8.40;;;4.50;;
34471;SDS011;20710;49.976;19.836;2023-07-13T09:07:27;9.40;;;4.90;;
34471;SDS011;20710;49.976;19.836;2023-07-13T09:20:37;5.50;;;4.00;;
34471;SDS011;20710;49.976;19.836;2023-07-13T09:27:03;5.70;;;4.40;;
34471;SDS011;20710;49.976;19.836;2023-07-13T09:33:12;4.50;;;3.90;;
34471;SDS011;20710;49.976;19.836;2023-07-13T09:45:42;5.10;;;4.30;;
34471;SDS011;20710;49.976;19.836;2023-07-13T09:51:47;7.30;;;4.00;;
34471;SDS011;20710;49.976;19.836;2023-07-13T09:57:50;8.40;;;4.40;;
34471;SDS011;20710;49.976;19.836;2023-07-13T10:03:53;4.90;;;3.90;;
34471;SDS011;20710;49.976;19.836;2023-07-13T10:09:56;9.80;;;3.70;;
34471;SDS011;20710;49.976;19.836;2023-07-13T10:15:59;8.20;;;4.90;;
34471;SDS011;20710;49.976;19.836;2023-07-13T10:22:02;9.80;;;6.10;;
34471;SDS011;20710;49.976;19.836;2023-07-13T10:35:01;10.90;;;6.80;;
34471;SDS011;20710;49.976;19.836;2023-07-13T10:41:11;14.60;;;7.50;;
34471;SDS011;20710;49.976;19.836;2023-07-13T10:47:31;11.00;;;7.80;;
34471;SDS011;20710;49.976;19.836;2023-07-13T11:00:19;13.90;;;8.60;;
34471;SDS011;20710;49.976;19.836;2023-07-13T11:12:29;15.10;;;10.10;;
34471;SDS011;20710;49.976;19.836;2023-07-13T11:32:51;11.60;;;7.70;;
34471;SDS011;20710;49.976;19.836;2023-07-13T11:45:40;10.30;;;2.30;;
34471;SDS011;20710;49.976;19.836;2023-07-13T11:51:41;8.70;;;2.90;;
34471;SDS011;20710;49.976;19.836;2023-07-13T11:57:57;7.30;;;3.20;;
34471;SDS011;20710;49.976;19.836;2023-07-13T12:04:01;4.70;;;2.80;;
34471;SDS011;20710;49.976;19.836;2023-07-13T12:17:38;5.00;;;2.80;;
34471;SDS011;20710;49.976;19.836;2023-07-13T12:23:36;8.30;;;2.60;;
34471;SDS011;20710;49.976;19.836;2023-07-13T12:29:38;4.40;;;2.00;;
34471;SDS011;20710;49.976;19.836;2023-07-13T12:36:03;5.70;;;2.20;;
34471;SDS011;20710;49.976;19.836;2023-07-13T12:42:53;4.60;;;2.40;;
34471;SDS011;20710;49.976;19.836;2023-07-13T12:49:15;5.60;;;2.50;;
34471;SDS011;20710;49.976;19.836;2023-07-13T12:55:53;4.80;;;2.70;;
34471;SDS011;20710;49.976;19.836;2023-07-13T13:02:46;4.50;;;2.60;;
34471;SDS011;20710;49.976;19.836;2023-07-13T13:09:21;3.80;;;2.30;;
34471;SDS011;20710;49.976;19.836;2023-07-13T13:15:24;5.20;;;2.90;;
34471;SDS011;20710;49.976;19.836;2023-07-13T13:21:26;2.90;;;2.40;;
34471;SDS011;20710;49.976;19.836;2023-07-13T13:27:28;8.40;;;2.80;;
34471;SDS011;20710;49.976;19.836;2023-07-13T13:33:30;5.70;;;3.40;;
34471;SDS011;20710;49.976;19.836;2023-07-13T13:39:33;3.10;;;2.30;;
34471;SDS011;20710;49.976;19.836;2023-07-13T13:45:57;5.50;;;2.80;;
34471;SDS011;20710;49.976;19.836;2023-07-13T13:52:13;7.30;;;2.40;;
34471;SDS011;20710;49.976;19.836;2023-07-13T13:58:15;4.60;;;2.30;;
34471;SDS011;20710;49.976;19.836;2023-07-13T14:04:17;4.00;;;2.20;;
34471;SDS011;20710;49.976;19.836;2023-07-13T14:10:50;4.30;;;3.20;;
34471;SDS011;20710;49.976;19.836;2023-07-13T14:17:18;6.30;;;3.60;;
34471;SDS011;20710;49.976;19.836;2023-07-13T14:23:23;7.20;;;4.00;;
34471;SDS011;20710;49.976;19.836;2023-07-13T14:29:24;10.40;;;4.80;;
34471;SDS011;20710;49.976;19.836;2023-07-13T14:35:26;8.20;;;5.00;;
34471;SDS011;20710;49.976;19.836;2023-07-13T14:41:31;3.60;;;3.20;;
34471;SDS011;20710;49.976;19.836;2023-07-13T14:47:32;9.20;;;3.40;;
34471;SDS011;20710;49.976;19.836;2023-07-13T14:53:54;5.90;;;3.50;;
34471;SDS011;20710;49.976;19.836;2023-07-13T14:59:56;4.90;;;3.00;;
34471;SDS011;20710;49.976;19.836;2023-07-13T15:05:59;4.20;;;3.00;;
34471;SDS011;20710;49.976;19.836;2023-07-13T15:12:01;5.00;;;3.40;;
34471;SDS011;20710;49.976;19.836;2023-07-13T15:18:02;5.90;;;4.00;;
34471;SDS011;20710;49.976;19.836;2023-07-13T15:24:04;4.50;;;3.10;;
34471;SDS011;20710;49.976;19.836;2023-07-13T15:30:10;7.90;;;4.20;;
34471;SDS011;20710;49.976;19.836;2023-07-13T15:36:13;5.80;;;4.30;;
34471;SDS011;20710;49.976;19.836;2023-07-13T15:42:15;6.80;;;4.10;;
34471;SDS011;20710;49.976;19.836;2023-07-13T15:48:21;5.50;;;3.90;;
34471;SDS011;20710;49.976;19.836;2023-07-13T15:54:29;10.00;;;4.10;;
34471;SDS011;20710;49.976;19.836;2023-07-13T16:00:30;6.20;;;4.00;;
34471;SDS011;20710;49.976;19.836;2023-07-13T16:06:33;7.30;;;4.40;;
34471;SDS011;20710;49.976;19.836;2023-07-13T16:12:54;8.80;;;4.80;;
34471;SDS011;20710;49.976;19.836;2023-07-13T16:18:58;7.10;;;4.20;;
34471;SDS011;20710;49.976;19.836;2023-07-13T16:25:01;8.50;;;4.60;;
34471;SDS011;20710;49.976;19.836;2023-07-13T16:37:40;15.90;;;9.80;;
34471;SDS011;20710;49.976;19.836;2023-07-13T16:43:42;13.80;;;8.60;;
34471;SDS011;20710;49.976;19.836;2023-07-13T16:49:46;13.50;;;7.70;;
34471;SDS011;20710;49.976;19.836;2023-07-13T16:56:20;12.20;;;8.00;;
34471;SDS011;20710;49.976;19.836;2023-07-13T17:08:26;10.10;;;7.20;;
34471;SDS011;20710;49.976;19.836;2023-07-13T17:15:29;10.80;;;7.20;;
34471;SDS011;20710;49.976;19.836;2023-07-13T17:21:34;11.40;;;7.70;;
34471;SDS011;20710;49.976;19.836;2023-07-13T17:27:36;12.90;;;8.80;;
34471;SDS011;20710;49.976;19.836;2023-07-13T17:34:03;13.20;;;9.70;;
34471;SDS011;20710;49.976;19.836;2023-07-13T17:40:13;15.80;;;9.00;;
34471;SDS011;20710;49.976;19.836;2023-07-13T17:46:30;13.80;;;9.40;;
34471;SDS011;20710;49.976;19.836;2023-07-13T17:52:33;12.20;;;9.00;;
34471;SDS011;20710;49.976;19.836;2023-07-13T17:58:35;14.70;;;9.10;;
34471;SDS011;20710;49.976;19.836;2023-07-13T18:04:39;12.80;;;8.60;;
34471;SDS011;20710;49.976;19.836;2023-07-13T18:10:40;14.80;;;8.70;;
34471;SDS011;20710;49.976;19.836;2023-07-13T18:16:44;12.20;;;8.70;;
34471;SDS011;20710;49.976;19.836;2023-07-13T18:22:51;16.60;;;9.10;;
34471;SDS011;20710;49.976;19.836;2023-07-13T18:29:21;19.50;;;9.40;;
34471;SDS011;20710;49.976;19.836;2023-07-13T18:35:28;14.10;;;9.00;;
34471;SDS011;20710;49.976;19.836;2023-07-13T18:41:49;11.70;;;8.20;;
34471;SDS011;20710;49.976;19.836;2023-07-13T18:48:13;12.00;;;7.00;;
34471;SDS011;20710;49.976;19.836;2023-07-13T18:55:17;11.70;;;6.80;;
34471;SDS011;20710;49.976;19.836;2023-07-13T19:01:55;9.90;;;6.30;;
34471;SDS011;20710;49.976;19.836;2023-07-13T19:07:57;9.70;;;6.80;;
34471;SDS011;20710;49.976;19.836;2023-07-13T19:13:59;9.90;;;7.20;;
34471;SDS011;20710;49.976;19.836;2023-07-13T19:20:01;9.00;;;6.90;;
34471;SDS011;20710;49.976;19.836;2023-07-13T19:26:05;12.20;;;8.20;;
34471;SDS011;20710;49.976;19.836;2023-07-13T19:33:08;11.40;;;6.60;;
34471;SDS011;20710;49.976;19.836;2023-07-13T19:39:37;14.00;;;7.70;;
34471;SDS011;20710;49.976;19.836;2023-07-13T19:52:28;13.20;;;8.00;;
34471;SDS011;20710;49.976;19.836;2023-07-13T19:58:30;10.20;;;8.10;;
34471;SDS011;20710;49.976;19.836;2023-07-13T20:04:53;10.80;;;7.80;;
34471;SDS011;20710;49.976;19.836;2023-07-13T20:10:56;14.40;;;8.60;;
34471;SDS011;20710;49.976;19.836;2023-07-13T20:17:30;10.30;;;8.70;;
34471;SDS011;20710;49.976;19.836;2023-07-13T20:23:33;25.90;;;10.10;;
34471;SDS011;20710;49.976;19.836;2023-07-13T20:29:34;12.80;;;9.60;;
34471;SDS011;20710;49.976;19.836;2023-07-13T20:35:36;11.40;;;9.20;;
34471;SDS011;20710;49.976;19.836;2023-07-13T20:41:45;10.70;;;8.10;;
34471;SDS011;20710;49.976;19.836;2023-07-13T20:48:23;11.00;;;8.50;;
34471;SDS011;20710;49.976;19.836;2023-07-13T20:54:48;11.20;;;7.40;;
34471;SDS011;20710;49.976;19.836;2023-07-13T21:00:50;11.80;;;7.90;;
34471;SDS011;20710;49.976;19.836;2023-07-13T21:06:54;11.30;;;8.00;;
34471;SDS011;20710;49.976;19.836;2023-07-13T21:13:18;11.60;;;6.80;;
34471;SDS011;20710;49.976;19.836;2023-07-13T21:20:00;7.50;;;6.80;;
34471;SDS011;20710;49.976;19.836;2023-07-13T21:26:27;9.50;;;7.40;;
34471;SDS011;20710;49.976;19.836;2023-07-13T21:32:28;10.50;;;7.80;;
34471;SDS011;20710;49.976;19.836;2023-07-13T21:44:48;10.10;;;5.90;;
34471;SDS011;20710;49.976;19.836;2023-07-13T21:51:26;9.30;;;7.10;;
34471;SDS011;20710;49.976;19.836;2023-07-13T21:57:29;11.10;;;7.40;;
34471;SDS011;20710;49.976;19.836;2023-07-13T22:04:01;13.00;;;8.10;;
34471;SDS011;20710;49.976;19.836;2023-07-13T22:10:04;12.90;;;8.20;;
34471;SDS011;20710;49.976;19.836;2023-07-13T22:16:08;12.20;;;7.80;;
34471;SDS011;20710;49.976;19.836;2023-07-13T22:22:19;10.30;;;8.00;;
34471;SDS011;20710;49.976;19.836;2023-07-13T22:28:22;12.80;;;8.30;;
34471;SDS011;20710;49.976;19.836;2023-07-13T22:34:43;9.80;;;7.50;;
34471;SDS011;20710;49.976;19.836;2023-07-13T22:40:45;10.50;;;7.80;;
34471;SDS011;20710;49.976;19.836;2023-07-13T22:46:47;12.50;;;7.40;;
34471;SDS011;20710;49.976;19.836;2023-07-13T22:52:49;11.70;;;8.10;;
34471;SDS011;20710;49.976;19.836;2023-07-13T22:58:51;11.40;;;8.10;;
34471;SDS011;20710;49.976;19.836;2023-07-13T23:05:14;13.40;;;7.60;;
34471;SDS011;20710;49.976;19.836;2023-07-13T23:11:18;10.80;;;7.10;;
34471;SDS011;20710;49.976;19.836;2023-07-13T23:17:21;8.50;;;6.20;;
34471;SDS011;20710;49.976;19.836;2023-07-13T23:23:22;10.30;;;7.40;;
34471;SDS011;20710;49.976;19.836;2023-07-13T23:29:45;13.60;;;6.70;;
34471;SDS011;20710;49.976;19.836;2023-07-13T23:36:12;9.50;;;7.20;;
34471;SDS011;20710;49.976;19.836;2023-07-13T23:42:16;11.30;;;7.00;;
34471;SDS011;20710;49.976;19.836;2023-07-13T23:48:20;9.70;;;6.70;;
34471;SDS011;20710;49.976;19.836;2023-07-13T23:54:24;9.00;;;6.30;;
